Time;durP1;ratioP1;P1;durP2;ratioP2;P2;SDS_P1;SDS_P2;PMS_P1;PMS_P2;Temp;Humidity;BMP_temperature;BMP_pressure;BME280_temperature;BME280_humidity;BME280_pressure;Samples;Min_cycle;Max_cycle;Signal;HPM_P1;HPM_P2
2024/01/30 00:02:15;;;;;;;3.42;3.15;;;18.40;57.00;;;;;;5052817;28;20194;-76
2024/01/30 00:04:41;;;;;;;3.88;3.58;;;18.40;57.00;;;;;;5086138;28;20277;-76
2024/01/30 00:07:07;;;;;;;3.75;3.45;;;18.40;57.00;;;;;;5054101;28;20197;-75
2024/01/30 00:09:33;;;;;;;3.58;3.28;;;18.40;57.00;;;;;;5052736;28;20254;-76
2024/01/30 00:11:59;;;;;;;3.88;3.42;;;18.40;57.00;;;;;;5035953;28;20313;-75
2024/01/30 00:14:24;;;;;;;3.70;3.40;;;18.40;57.00;;;;;;5053555;28;20229;-75
2024/01/30 00:16:51;;;;;;;3.30;3.10;;;18.40;57.00;;;;;;5052495;28;20205;-75
2024/01/30 00:19:17;;;;;;;3.70;3.40;;;18.50;57.00;;;;;;5052279;28;20202;-76
2024/01/30 00:21:43;;;;;;;3.83;3.53;;;18.40;57.00;;;;;;5052240;28;20632;-75
2024/01/30 00:24:09;;;;;;;3.50;3.20;;;18.40;56.90;;;;;;5047038;28;20191;-75
2024/01/30 00:26:35;;;;;;;3.50;3.20;;;18.40;57.00;;;;;;5065911;28;20229;-75
2024/01/30 00:29:01;;;;;;;3.75;3.47;;;18.40;57.00;;;;;;5060767;28;20187;-76
2024/01/30 00:31:26;;;;;;;3.08;2.88;;;18.40;57.00;;;;;;5044365;28;20226;-75
2024/01/30 00:33:52;;;;;;;3.38;3.08;;;18.40;57.00;;;;;;5052899;28;20266;-75
2024/01/30 00:36:18;;;;;;;3.55;3.25;;;18.40;57.00;;;;;;5059862;28;20202;-75
2024/01/30 00:38:44;;;;;;;3.15;2.95;;;18.40;57.00;;;;;;5053830;28;20178;-75
2024/01/30 00:41:09;;;;;;;3.60;3.30;;;18.40;57.00;;;;;;5057610;28;20189;-75
2024/01/30 00:43:37;;;;;;;3.72;3.42;;;18.40;56.90;;;;;;5054738;28;20186;-75
2024/01/30 00:46:03;;;;;;;4.20;3.13;;;18.40;56.90;;;;;;5052992;28;20218;-75
2024/01/30 00:48:29;;;;;;;3.30;3.00;;;18.40;56.90;;;;;;5048930;28;20189;-75
2024/01/30 00:50:55;;;;;;;3.60;3.30;;;18.40;56.90;;;;;;5093115;28;20266;-75
2024/01/30 00:53:21;;;;;;;3.30;3.00;;;18.40;57.00;;;;;;5041930;28;20664;-75
2024/01/30 00:55:46;;;;;;;3.38;3.10;;;18.40;56.90;;;;;;5052649;28;20221;-75
2024/01/30 00:58:12;;;;;;;3.60;3.30;;;18.40;56.90;;;;;;5051844;28;20712;-75
2024/01/30 01:00:39;;;;;;;3.78;3.47;;;18.40;56.90;;;;;;5052636;28;20218;-75
2024/01/30 01:03:05;;;;;;;3.70;3.40;;;18.40;57.00;;;;;;5047265;28;20552;-75
2024/01/30 01:05:30;;;;;;;3.65;3.35;;;18.40;56.90;;;;;;5064539;28;20305;-75
2024/01/30 01:07:56;;;;;;;3.60;3.30;;;18.40;57.00;;;;;;5034975;28;20187;-75
2024/01/30 01:10:22;;;;;;;3.88;3.58;;;18.40;56.90;;;;;;5037396;28;20186;-76
2024/01/30 01:12:48;;;;;;;3.45;3.15;;;18.40;56.90;;;;;;5059633;28;20174;-76
2024/01/30 01:15:14;;;;;;;3.58;3.28;;;18.40;56.90;;;;;;5052199;28;20285;-75
2024/01/30 01:17:40;;;;;;;3.40;3.10;;;18.40;56.80;;;;;;5052316;28;20246;-76
2024/01/30 01:20:07;;;;;;;3.47;3.17;;;18.40;56.80;;;;;;5059035;28;20197;-75
2024/01/30 01:22:34;;;;;;;3.53;3.22;;;18.40;56.80;;;;;;5058520;28;20185;-75
2024/01/30 01:25:01;;;;;;;3.80;3.50;;;18.40;56.80;;;;;;5073182;28;20244;-75
2024/01/30 01:27:27;;;;;;;4.25;3.47;;;18.40;56.80;;;;;;5060344;28;20248;-75
2024/01/30 01:29:53;;;;;;;3.95;3.55;;;18.40;56.80;;;;;;5091943;28;20178;-75
2024/01/30 01:32:19;;;;;;;4.15;3.75;;;18.40;56.80;;;;;;5053065;28;20221;-75
2024/01/30 01:34:45;;;;;;;3.65;3.35;;;18.40;56.90;;;;;;5052822;28;20204;-75
2024/01/30 01:37:11;;;;;;;3.92;3.33;;;18.40;56.80;;;;;;5047810;28;20182;-75
2024/01/30 01:39:37;;;;;;;3.78;3.28;;;18.40;57.40;;;;;;5058367;28;20173;-75
2024/01/30 01:42:03;;;;;;;3.83;3.53;;;18.30;56.70;;;;;;5056882;28;20183;-75
2024/01/30 01:44:29;;;;;;;3.75;3.45;;;18.40;56.80;;;;;;5036278;28;20183;-75
2024/01/30 01:46:56;;;;;;;3.92;3.53;;;18.40;56.80;;;;;;5051976;28;20193;-75
2024/01/30 01:49:25;;;;;;;3.70;3.40;;;18.40;56.80;;;;;;5068648;28;20177;-76
2024/01/30 01:51:54;;;;;;;3.30;3.10;;;18.40;56.80;;;;;;5050937;28;20214;-75
2024/01/30 01:54:20;;;;;;;3.90;3.58;;;18.30;56.70;;;;;;5078251;28;20174;-76
2024/01/30 01:56:46;;;;;;;3.38;3.05;;;18.40;56.80;;;;;;5065219;28;20280;-75
2024/01/30 01:59:12;;;;;;;3.78;3.47;;;18.30;56.70;;;;;;5046756;28;20202;-75
2024/01/30 02:01:40;;;;;;;3.70;3.08;;;18.40;56.80;;;;;;5057324;28;20179;-75
2024/01/30 02:04:07;;;;;;;3.35;3.00;;;18.30;56.70;;;;;;5062222;28;20649;-75
2024/01/30 02:06:35;;;;;;;3.53;3.22;;;18.40;56.80;;;;;;5060466;28;20214;-75
2024/01/30 02:09:01;;;;;;;3.47;3.17;;;18.30;56.60;;;;;;5064263;28;20201;-76
2024/01/30 02:11:28;;;;;;;3.38;3.08;;;18.40;56.70;;;;;;5048471;28;20197;-75
2024/01/30 02:13:53;;;;;;;3.33;3.03;;;18.40;56.60;;;;;;5050454;28;20221;-75
2024/01/30 02:16:19;;;;;;;3.72;3.42;;;18.40;56.70;;;;;;5057057;28;20218;-76
2024/01/30 02:18:47;;;;;;;3.33;3.03;;;18.40;56.70;;;;;;5057621;28;20182;-75
2024/01/30 02:21:17;;;;;;;3.10;2.90;;;18.30;56.60;;;;;;5067531;28;20170;-76
2024/01/30 02:23:46;;;;;;;3.08;2.78;;;18.40;56.60;;;;;;5051738;28;20181;-75
2024/01/30 02:26:12;;;;;;;3.42;3.13;;;18.30;56.60;;;;;;5050121;28;20355;-75
2024/01/30 02:28:38;;;;;;;3.05;2.85;;;18.30;56.70;;;;;;5057003;28;20675;-75
2024/01/30 02:31:05;;;;;;;3.30;3.08;;;18.30;56.60;;;;;;5050286;28;20565;-76
2024/01/30 02:33:31;;;;;;;3.53;3.22;;;18.40;56.70;;;;;;5056620;28;20187;-75
2024/01/30 02:35:56;;;;;;;3.25;2.95;;;18.30;56.80;;;;;;5051356;28;20240;-76
2024/01/30 02:38:23;;;;;;;3.33;3.03;;;18.30;56.60;;;;;;5056773;28;20210;-75
2024/01/30 02:40:49;;;;;;;3.60;3.30;;;18.30;56.60;;;;;;5080325;28;20189;-75
2024/01/30 02:43:16;;;;;;;3.10;2.80;;;18.30;56.60;;;;;;5050191;28;20604;-75
2024/01/30 02:45:42;;;;;;;3.70;3.40;;;18.40;56.70;;;;;;5057601;28;20244;-75
2024/01/30 02:48:08;;;;;;;3.45;3.15;;;18.30;56.60;;;;;;5052731;28;20194;-75
2024/01/30 02:50:34;;;;;;;3.53;3.22;;;18.30;56.60;;;;;;5044245;28;20179;-75
2024/01/30 02:53:00;;;;;;;2.95;2.70;;;18.30;56.60;;;;;;5055733;28;20190;-75
2024/01/30 02:55:26;;;;;;;3.45;3.15;;;18.40;56.60;;;;;;5061300;28;20202;-75
2024/01/30 02:57:51;;;;;;;3.13;2.83;;;18.30;56.60;;;;;;5061276;28;20269;-76
2024/01/30 03:00:19;;;;;;;3.65;3.35;;;18.30;56.60;;;;;;5053886;28;20170;-76
2024/01/30 03:02:45;;;;;;;3.17;2.97;;;18.30;56.60;;;;;;5037479;28;20175;-75
2024/01/30 03:05:11;;;;;;;3.38;3.08;;;18.30;56.60;;;;;;5036903;28;20198;-75
2024/01/30 03:07:37;;;;;;;3.13;2.92;;;18.40;56.60;;;;;;5051562;28;20179;-75
2024/01/30 03:10:05;;;;;;;2.97;2.78;;;18.30;56.50;;;;;;5054729;28;20182;-75
2024/01/30 03:12:31;;;;;;;3.95;3.55;;;18.40;56.60;;;;;;5078727;28;20224;-75
2024/01/30 03:14:57;;;;;;;3.08;2.88;;;18.30;56.50;;;;;;5054589;28;20199;-75
2024/01/30 03:17:24;;;;;;;3.20;2.90;;;18.40;56.60;;;;;;5037181;28;20179;-75
2024/01/30 03:19:50;;;;;;;3.30;3.00;;;18.30;56.40;;;;;;5053891;28;20597;-75
2024/01/30 03:22:16;;;;;;;3.10;2.83;;;18.40;56.60;;;;;;5046956;28;20188;-76
2024/01/30 03:24:41;;;;;;;3.10;2.90;;;18.30;56.50;;;;;;5061130;28;20185;-75
2024/01/30 03:27:08;;;;;;;3.13;2.83;;;18.30;56.50;;;;;;5036420;28;20198;-75
2024/01/30 03:29:34;;;;;;;2.95;2.75;;;18.30;56.50;;;;;;5054510;28;20553;-75
2024/01/30 03:31:59;;;;;;;2.85;2.65;;;18.30;56.50;;;;;;5053238;28;20206;-75
2024/01/30 03:34:25;;;;;;;3.30;3.00;;;18.30;56.50;;;;;;5054302;28;20186;-75
2024/01/30 03:36:51;;;;;;;3.05;2.80;;;18.30;56.60;;;;;;5059131;28;20185;-75
2024/01/30 03:39:17;;;;;;;3.45;3.15;;;18.30;56.50;;;;;;5054444;28;20189;-75
2024/01/30 03:41:44;;;;;;;3.15;2.85;;;18.30;56.50;;;;;;5044959;28;20218;-75
2024/01/30 03:44:10;;;;;;;3.10;2.90;;;18.30;56.50;;;;;;5053006;28;20186;-75
2024/01/30 03:46:36;;;;;;;3.13;2.83;;;18.30;56.50;;;;;;5057240;28;20225;-75
2024/01/30 03:49:02;;;;;;;3.30;3.00;;;18.30;56.40;;;;;;5054295;28;20186;-75
2024/01/30 03:51:28;;;;;;;2.70;2.50;;;18.30;56.30;;;;;;5069606;28;20220;-75
2024/01/30 03:53:53;;;;;;;3.53;3.22;;;18.30;56.50;;;;;;5052791;28;20194;-75
2024/01/30 03:56:19;;;;;;;3.10;2.80;;;18.30;56.40;;;;;;5086472;28;20206;-76
2024/01/30 03:58:45;;;;;;;4.80;3.08;;;18.30;56.40;;;;;;5053012;28;20193;-76
2024/01/30 04:01:14;;;;;;;3.35;3.05;;;18.30;56.40;;;;;;5049961;28;20190;-75
2024/01/30 04:03:41;;;;;;;3.47;2.83;;;18.30;56.40;;;;;;5069661;28;20194;-76
2024/01/30 04:06:07;;;;;;;3.33;3.03;;;18.30;56.40;;;;;;5027718;28;20210;-75
2024/01/30 04:08:33;;;;;;;2.78;2.58;;;18.30;56.40;;;;;;5053656;28;20609;-75
2024/01/30 04:11:02;;;;;;;3.33;3.03;;;18.30;56.30;;;;;;5083417;28;20226;-75
2024/01/30 04:13:28;;;;;;;3.28;2.97;;;18.30;56.30;;;;;;5049600;28;20204;-75
2024/01/30 04:15:55;;;;;;;3.15;2.95;;;18.30;56.30;;;;;;5035621;28;20681;-75
2024/01/30 04:18:20;;;;;;;3.38;3.00;;;18.30;56.40;;;;;;5052569;28;20248;-75
2024/01/30 04:20:46;;;;;;;3.30;3.00;;;18.30;56.40;;;;;;5053686;28;20190;-76
2024/01/30 04:23:12;;;;;;;2.90;2.70;;;18.30;56.40;;;;;;5052488;28;20190;-75
2024/01/30 04:25:38;;;;;;;2.90;2.70;;;18.30;56.30;;;;;;5051916;28;20225;-75
2024/01/30 04:28:04;;;;;;;3.20;2.90;;;18.30;56.50;;;;;;5053407;28;20198;-76
2024/01/30 04:30:30;;;;;;;3.42;3.13;;;18.30;56.30;;;;;;5069198;28;20190;-75
2024/01/30 04:32:55;;;;;;;3.30;3.00;;;18.30;56.40;;;;;;5063719;28;20240;-75
2024/01/30 04:35:24;;;;;;;3.00;2.80;;;18.30;56.30;;;;;;5046056;28;20206;-76
2024/01/30 04:37:52;;;;;;;3.42;3.13;;;18.30;56.40;;;;;;5052811;28;20285;-75
2024/01/30 04:40:18;;;;;;;3.47;2.97;;;18.30;56.30;;;;;;5052231;28;20266;-76
2024/01/30 04:42:44;;;;;;;3.45;3.15;;;18.30;56.30;;;;;;5051915;28;20189;-75
2024/01/30 04:45:09;;;;;;;3.13;2.85;;;18.20;56.10;;;;;;5052840;28;20210;-76
2024/01/30 04:47:35;;;;;;;2.80;2.60;;;18.30;56.30;;;;;;5051778;28;20685;-75
2024/01/30 04:50:04;;;;;;;3.60;3.30;;;18.30;56.30;;;;;;5080553;28;20198;-76
2024/01/30 04:52:30;;;;;;;2.88;2.67;;;18.30;56.30;;;;;;5056323;28;20263;-75
2024/01/30 04:54:55;;;;;;;2.90;2.70;;;18.30;56.20;;;;;;5076640;28;20215;-75
2024/01/30 04:57:21;;;;;;;3.17;2.88;;;18.30;56.30;;;;;;5063771;28;20187;-76
2024/01/30 04:59:47;;;;;;;3.17;2.90;;;18.30;56.20;;;;;;5051656;28;20205;-76
2024/01/30 05:02:13;;;;;;;3.17;2.88;;;18.30;56.20;;;;;;5077618;28;20194;-76
2024/01/30 05:04:40;;;;;;;2.85;2.65;;;18.30;56.20;;;;;;5034618;28;20182;-76
2024/01/30 05:07:06;;;;;;;2.72;2.53;;;18.30;56.20;;;;;;5068010;28;20244;-75
2024/01/30 05:09:32;;;;;;;2.75;2.55;;;18.30;56.20;;;;;;5034416;28;20189;-75
2024/01/30 05:11:58;;;;;;;2.95;2.65;;;18.30;56.20;;;;;;5068013;28;20199;-76
2024/01/30 05:14:23;;;;;;;3.15;2.85;;;18.30;56.20;;;;;;5050843;28;20247;-75
2024/01/30 05:16:49;;;;;;;3.88;3.22;;;18.30;56.20;;;;;;5028973;28;20740;-75
2024/01/30 05:19:15;;;;;;;2.75;2.55;;;18.30;56.20;;;;;;5061511;28;20209;-76
2024/01/30 05:21:41;;;;;;;2.80;2.58;;;18.30;56.20;;;;;;5066086;28;20196;-75
2024/01/30 05:24:09;;;;;;;3.33;3.05;;;18.30;56.20;;;;;;5081885;28;20193;-74
2024/01/30 05:26:35;;;;;;;3.10;2.80;;;18.30;56.20;;;;;;5063250;28;20700;-75
2024/01/30 05:29:01;;;;;;;3.40;2.65;;;18.20;56.10;;;;;;5053938;28;20251;-75
2024/01/30 05:31:27;;;;;;;3.40;3.10;;;18.20;56.10;;;;;;5050896;28;20217;-75
2024/01/30 05:33:52;;;;;;;3.65;3.35;;;18.20;56.10;;;;;;5055187;28;20179;-74
2024/01/30 05:36:18;;;;;;;3.33;3.03;;;18.30;56.20;;;;;;5076410;28;20198;-74
2024/01/30 05:38:44;;;;;;;2.90;2.70;;;18.30;56.20;;;;;;5038933;28;20182;-75
2024/01/30 05:41:09;;;;;;;3.22;3.03;;;18.20;56.10;;;;;;5034221;28;20186;-75
2024/01/30 05:43:35;;;;;;;3.00;2.80;;;18.30;56.20;;;;;;5050935;28;20194;-75
2024/01/30 05:46:01;;;;;;;3.30;3.00;;;18.20;56.70;;;;;;5067150;28;20222;-75
2024/01/30 05:48:27;;;;;;;4.40;2.80;;;18.20;56.10;;;;;;5052417;28;20182;-75
2024/01/30 05:50:52;;;;;;;3.35;3.05;;;18.20;56.10;;;;;;5054969;28;20224;-75
2024/01/30 05:53:18;;;;;;;3.08;2.88;;;18.30;56.20;;;;;;5061923;28;20186;-74
2024/01/30 05:55:44;;;;;;;3.25;3.03;;;18.20;56.10;;;;;;5043925;28;20217;-74
2024/01/30 05:58:09;;;;;;;3.40;3.10;;;18.20;56.10;;;;;;5093715;28;20186;-74
2024/01/30 06:00:35;;;;;;;3.10;2.80;;;18.20;56.10;;;;;;5058354;28;20694;-75
2024/01/30 06:03:01;;;;;;;3.22;3.03;;;18.20;56.10;;;;;;5062582;28;20190;-75
2024/01/30 06:05:26;;;;;;;3.10;2.80;;;18.20;56.10;;;;;;5067451;28;20284;-75
2024/01/30 06:07:52;;;;;;;3.40;3.10;;;18.20;56.10;;;;;;5063311;28;20355;-75
2024/01/30 06:10:18;;;;;;;3.00;2.72;;;18.20;56.10;;;;;;5084343;28;20182;-75
2024/01/30 06:12:44;;;;;;;3.22;2.97;;;18.20;56.10;;;;;;5044363;28;20206;-74
2024/01/30 06:15:12;;;;;;;2.95;2.72;;;18.20;56.00;;;;;;5060407;28;20590;-74
2024/01/30 06:17:37;;;;;;;2.80;2.60;;;18.20;56.10;;;;;;5050508;28;20236;-75
2024/01/30 06:20:04;;;;;;;3.60;3.30;;;18.20;56.00;;;;;;5050341;28;20186;-75
2024/01/30 06:22:30;;;;;;;3.08;2.72;;;18.20;56.10;;;;;;5055821;28;20236;-74
2024/01/30 06:24:55;;;;;;;3.55;3.00;;;18.20;56.00;;;;;;5083601;28;20210;-75
2024/01/30 06:27:21;;;;;;;3.47;3.17;;;18.20;56.10;;;;;;5059855;28;20570;-75
2024/01/30 06:29:47;;;;;;;3.80;3.38;;;18.20;56.10;;;;;;5037668;28;20208;-75
2024/01/30 06:32:12;;;;;;;4.38;3.72;;;18.10;56.00;;;;;;5054166;28;20229;-75
2024/01/30 06:34:39;;;;;;;4.03;3.63;;;18.10;56.00;;;;;;5053862;28;20217;-75
2024/01/30 06:37:05;;;;;;;5.57;5.00;;;18.10;55.90;;;;;;5041489;28;20210;-75
2024/01/30 06:39:31;;;;;;;6.60;5.60;;;18.20;56.60;;;;;;5075093;28;20198;-75
2024/01/30 06:41:57;;;;;;;5.30;4.80;;;18.20;56.10;;;;;;5034327;28;20195;-75
2024/01/30 06:44:23;;;;;;;4.80;4.28;;;18.20;55.90;;;;;;5053724;28;20182;-75
2024/01/30 06:46:48;;;;;;;4.88;4.47;;;18.20;56.00;;;;;;5057384;28;20581;-75
2024/01/30 06:49:14;;;;;;;5.47;4.90;;;18.20;55.80;;;;;;5063314;28;20186;-74
2024/01/30 06:51:40;;;;;;;5.35;4.85;;;18.20;55.90;;;;;;5047528;28;20217;-75
2024/01/30 06:54:05;;;;;;;4.72;4.18;;;18.20;55.80;;;;;;5042384;28;20183;-75
2024/01/30 06:56:31;;;;;;;5.10;4.60;;;18.20;55.80;;;;;;5061854;28;20202;-75
2024/01/30 06:58:59;;;;;;;5.72;4.75;;;18.20;55.90;;;;;;5057872;28;20186;-75
2024/01/30 07:01:29;;;;;;;5.10;4.60;;;18.20;55.80;;;;;;5057893;28;20190;-75
2024/01/30 07:03:55;;;;;;;5.63;5.00;;;18.20;55.80;;;;;;5057490;28;20221;-74
2024/01/30 07:06:22;;;;;;;6.10;5.05;;;18.20;55.90;;;;;;5064688;28;20213;-75
2024/01/30 07:08:49;;;;;;;5.55;4.88;;;18.20;55.80;;;;;;5062977;28;20235;-75
2024/01/30 07:11:22;;;;;;;5.70;5.10;;;18.20;55.80;;;;;;5087102;28;20226;-75
2024/01/30 07:13:48;;;;;;;6.80;5.65;;;18.20;55.90;;;;;;5053592;28;20247;-75
2024/01/30 07:16:15;;;;;;;6.28;5.50;;;18.20;55.90;;;;;;5050279;28;20576;-75
2024/01/30 07:18:41;;;;;;;7.28;6.30;;;18.20;55.90;;;;;;5059201;28;20302;-75
2024/01/30 07:21:07;;;;;;;6.93;6.10;;;18.20;55.90;;;;;;5060008;28;20281;-75
2024/01/30 07:23:34;;;;;;;8.40;6.25;;;18.20;55.80;;;;;;5036819;28;20187;-75
2024/01/30 07:26:01;;;;;;;6.47;5.80;;;18.20;55.90;;;;;;5057045;28;20283;-75
2024/01/30 07:28:27;;;;;;;7.03;6.32;;;18.20;55.80;;;;;;5053619;28;20194;-75
2024/01/30 07:30:52;;;;;;;6.95;6.22;;;18.20;55.90;;;;;;5040470;28;20207;-75
2024/01/30 07:33:18;;;;;;;6.93;6.07;;;18.20;55.90;;;;;;5086220;28;20266;-75
2024/01/30 07:35:46;;;;;;;7.75;6.93;;;18.20;55.80;;;;;;5057133;28;20335;-75
2024/01/30 07:38:11;;;;;;;7.35;6.65;;;18.20;55.80;;;;;;5053367;28;20201;-75
2024/01/30 07:40:37;;;;;;;6.97;6.28;;;18.20;55.80;;;;;;5044244;28;20178;-75
2024/01/30 07:43:03;;;;;;;7.35;6.15;;;18.20;55.80;;;;;;5056440;28;20223;-75
2024/01/30 07:45:32;;;;;;;7.90;6.75;;;18.20;55.80;;;;;;5063885;28;20384;-75
2024/01/30 07:47:59;;;;;;;6.97;6.28;;;18.20;55.80;;;;;;5072902;28;20210;-75
2024/01/30 07:50:25;;;;;;;8.00;7.22;;;18.20;55.80;;;;;;5054017;28;20259;-75
2024/01/30 07:52:54;;;;;;;8.02;7.20;;;18.20;55.80;;;;;;5061426;28;20209;-75
2024/01/30 07:55:24;;;;;;;7.70;6.85;;;18.20;55.90;;;;;;5090163;28;20207;-75
2024/01/30 07:57:52;;;;;;;7.53;6.82;;;18.20;55.90;;;;;;5061552;28;20751;-75
2024/01/30 08:00:19;;;;;;;7.78;7.00;;;18.20;55.90;;;;;;5055456;28;20190;-75
2024/01/30 08:02:46;;;;;;;7.78;6.97;;;18.20;55.80;;;;;;5078025;28;20604;-74
2024/01/30 08:05:11;;;;;;;7.72;6.97;;;18.20;55.90;;;;;;5055898;28;20214;-75
2024/01/30 08:07:37;;;;;;;8.98;6.70;;;18.20;55.90;;;;;;5043255;28;20186;-75
2024/01/30 08:10:03;;;;;;;8.32;7.53;;;18.20;55.90;;;;;;5060881;28;20189;-75
2024/01/30 08:12:29;;;;;;;8.48;7.57;;;18.20;55.90;;;;;;5046559;28;20277;-74
2024/01/30 08:14:55;;;;;;;8.30;7.03;;;18.20;55.90;;;;;;5052479;28;20214;-75
2024/01/30 08:17:20;;;;;;;8.02;7.22;;;18.20;55.90;;;;;;5059470;28;20190;-75
2024/01/30 08:19:46;;;;;;;8.07;7.28;;;18.20;55.80;;;;;;5074103;28;20179;-75
2024/01/30 08:22:12;;;;;;;8.60;7.15;;;18.20;55.90;;;;;;5086022;28;20218;-75
2024/01/30 08:24:40;;;;;;;8.27;7.47;;;18.20;55.90;;;;;;5052385;28;20182;-75
2024/01/30 08:27:09;;;;;;;7.80;6.97;;;18.20;55.90;;;;;;5072525;28;20297;-75
2024/01/30 08:29:37;;;;;;;8.82;7.38;;;18.20;55.80;;;;;;5051174;28;20182;-75
2024/01/30 08:32:06;;;;;;;7.43;6.72;;;18.20;55.90;;;;;;5081713;28;20264;-75
2024/01/30 08:34:32;;;;;;;7.03;6.40;;;18.20;55.90;;;;;;5063822;28;20214;-75
2024/01/30 08:36:58;;;;;;;7.70;7.00;;;18.20;55.80;;;;;;5062662;28;20192;-75
2024/01/30 08:39:24;;;;;;;8.80;7.10;;;18.20;55.80;;;;;;5052736;28;20194;-75
2024/01/30 08:41:50;;;;;;;8.07;6.82;;;18.20;55.80;;;;;;5039783;28;20182;-74
2024/01/30 08:44:17;;;;;;;7.53;6.80;;;18.20;55.80;;;;;;5079398;28;20194;-75
2024/01/30 08:46:46;;;;;;;8.45;7.65;;;18.20;55.90;;;;;;5086667;28;20202;-75
2024/01/30 08:49:13;;;;;;;7.95;7.15;;;18.20;55.80;;;;;;5064612;28;20221;-75
2024/01/30 08:51:39;;;;;;;7.75;7.00;;;18.20;55.90;;;;;;5052097;28;20233;-75
2024/01/30 08:54:05;;;;;;;7.65;6.88;;;18.20;55.90;;;;;;5054862;28;20259;-75
2024/01/30 08:56:31;;;;;;;7.88;7.07;;;18.20;55.90;;;;;;5052642;28;20206;-75
2024/01/30 08:58:57;;;;;;;8.63;7.35;;;18.20;55.90;;;;;;5059259;28;20182;-75
2024/01/30 09:01:22;;;;;;;8.35;7.55;;;18.20;55.90;;;;;;5059520;28;20194;-75
2024/01/30 09:03:48;;;;;;;7.47;6.78;;;18.20;55.90;;;;;;5040802;28;20264;-75
2024/01/30 09:06:14;;;;;;;8.10;7.30;;;18.20;55.90;;;;;;5089744;28;20206;-75
2024/01/30 09:08:40;;;;;;;9.15;8.25;;;18.30;56.00;;;;;;5043339;28;20185;-75
2024/01/30 09:11:14;;;;;;;8.00;7.20;;;18.30;55.90;;;;;;5057932;28;20206;-75
2024/01/30 09:13:40;;;;;;;8.98;8.07;;;18.30;56.00;;;;;;5081636;28;20187;-75
2024/01/30 09:16:06;;;;;;;8.68;7.45;;;18.30;55.90;;;;;;5041224;28;20198;-75
2024/01/30 09:18:32;;;;;;;7.88;7.07;;;18.30;55.90;;;;;;5044145;28;20179;-75
2024/01/30 09:20:58;;;;;;;8.57;7.68;;;18.30;55.90;;;;;;5084513;28;20327;-74
2024/01/30 09:23:25;;;;;;;7.25;6.65;;;18.30;55.90;;;;;;5057851;28;20190;-75
2024/01/30 09:25:50;;;;;;;7.32;6.63;;;18.30;55.90;;;;;;5028919;28;20203;-75
2024/01/30 09:28:17;;;;;;;7.10;6.40;;;18.40;56.00;;;;;;5035514;28;20186;-75
2024/01/30 09:30:43;;;;;;;8.38;7.55;;;18.30;55.90;;;;;;5051251;28;20189;-75
2024/01/30 09:33:09;;;;;;;7.28;6.53;;;18.40;55.90;;;;;;5052253;28;20182;-75
2024/01/30 09:35:39;;;;;;;6.70;6.10;;;18.40;55.90;;;;;;5034548;28;20219;-75
2024/01/30 09:38:05;;;;;;;7.20;6.60;;;18.40;55.90;;;;;;5084489;28;20193;-75
2024/01/30 09:40:31;;;;;;;7.43;6.72;;;18.40;55.90;;;;;;5048212;28;20273;-75
2024/01/30 09:42:59;;;;;;;7.32;6.63;;;18.40;55.90;;;;;;5067632;28;20270;-75
2024/01/30 09:45:26;;;;;;;7.18;6.47;;;18.40;56.00;;;;;;5050492;28;20210;-74
2024/01/30 09:47:52;;;;;;;7.03;6.43;;;18.40;56.00;;;;;;5050770;28;20266;-75
2024/01/30 09:50:19;;;;;;;7.22;6.38;;;18.40;56.00;;;;;;5050997;28;20194;-75
2024/01/30 09:52:47;;;;;;;6.43;5.82;;;18.40;56.00;;;;;;5041240;28;20206;-75
2024/01/30 09:55:13;;;;;;;6.35;5.75;;;18.40;56.00;;;;;;5056964;28;20206;-74
2024/01/30 09:57:39;;;;;;;6.10;5.50;;;18.40;56.00;;;;;;5053849;28;20193;-75
2024/01/30 10:00:09;;;;;;;6.60;6.00;;;18.40;56.00;;;;;;5090091;28;20194;-75
2024/01/30 10:02:40;;;;;;;6.70;6.10;;;18.50;56.10;;;;;;5050586;28;20178;-75
2024/01/30 10:05:06;;;;;;;6.60;6.00;;;18.40;56.00;;;;;;5051843;28;20206;-75
2024/01/30 10:07:31;;;;;;;6.25;5.65;;;18.40;56.10;;;;;;5054621;28;20196;-75
2024/01/30 10:09:57;;;;;;;6.43;5.75;;;18.40;56.10;;;;;;5062006;28;20187;-75
2024/01/30 10:12:26;;;;;;;6.00;5.50;;;18.50;56.20;;;;;;5050598;28;20227;-75
2024/01/30 10:14:52;;;;;;;6.53;5.93;;;18.40;56.10;;;;;;5083863;28;20224;-75
2024/01/30 10:17:18;;;;;;;5.57;5.07;;;18.50;56.10;;;;;;5053542;28;20186;-75
2024/01/30 10:19:44;;;;;;;6.20;5.60;;;18.50;56.10;;;;;;5066970;28;20182;-75
2024/01/30 10:22:10;;;;;;;5.55;5.05;;;18.50;56.10;;;;;;5051472;28;20218;-75
2024/01/30 10:24:36;;;;;;;5.63;5.13;;;18.50;56.10;;;;;;5033274;28;20249;-74
2024/01/30 10:27:03;;;;;;;5.63;5.13;;;18.50;56.10;;;;;;5083661;28;20197;-75
2024/01/30 10:29:29;;;;;;;5.60;5.10;;;18.50;56.20;;;;;;5086705;28;20190;-75
2024/01/30 10:32:02;;;;;;;5.47;4.97;;;18.50;56.20;;;;;;5051177;28;20211;-75
2024/01/30 10:34:28;;;;;;;5.93;5.32;;;18.50;56.20;;;;;;5052345;28;20299;-75
2024/01/30 10:37:12;;;;;;;5.22;4.72;;;18.50;56.20;;;;;;5050309;28;20190;-75
2024/01/30 10:39:40;;;;;;;5.50;4.97;;;18.50;56.20;;;;;;5067216;28;20193;-75
2024/01/30 10:42:10;;;;;;;5.55;5.00;;;18.50;56.20;;;;;;5050287;28;20217;-75
2024/01/30 10:44:53;;;;;;;5.40;4.90;;;18.50;56.30;;;;;;5048459;28;20210;-76
2024/01/30 10:47:30;;;;;;;4.88;4.47;;;18.50;56.20;;;;;;5051307;28;20252;-75
2024/01/30 10:49:56;;;;;;;4.50;4.20;;;18.50;56.30;;;;;;5046176;28;20221;-75
2024/01/30 10:52:26;;;;;;;4.93;4.53;;;18.50;56.20;;;;;;5057856;28;20304;-75
2024/01/30 10:54:54;;;;;;;5.35;4.63;;;18.60;56.40;;;;;;5056516;28;20202;-75
2024/01/30 10:57:23;;;;;;;4.93;4.53;;;18.50;56.20;;;;;;5055009;28;20190;-75
2024/01/30 10:59:52;;;;;;;5.18;4.68;;;18.50;56.30;;;;;;5055080;28;20192;-74
2024/01/30 11:02:19;;;;;;;5.00;4.60;;;18.60;56.30;;;;;;5083697;28;20200;-75
2024/01/30 11:04:46;;;;;;;4.55;4.15;;;18.60;56.30;;;;;;5050810;28;20194;-75
2024/01/30 11:07:23;;;;;;;4.22;3.90;;;18.60;56.40;;;;;;5049836;28;20233;-75
2024/01/30 11:10:02;;;;;;;5.00;4.50;;;18.60;56.30;;;;;;5065627;28;20217;-75
2024/01/30 11:12:30;;;;;;;4.93;4.43;;;18.60;56.30;;;;;;5045072;28;20217;-75
2024/01/30 11:15:10;;;;;;;4.40;4.00;;;18.60;56.30;;;;;;5058958;28;20214;-74
2024/01/30 11:17:54;;;;;;;4.47;4.07;;;18.60;56.30;;;;;;5052534;28;20240;-75
2024/01/30 11:20:22;;;;;;;6.60;4.68;;;18.60;56.30;;;;;;5088031;28;20206;-75
2024/01/30 11:22:52;;;;;;;5.18;4.68;;;18.60;56.30;;;;;;5059347;28;20640;-75
2024/01/30 11:25:22;;;;;;;4.45;4.05;;;18.60;56.30;;;;;;5060174;28;20209;-75
2024/01/30 11:27:51;;;;;;;4.60;4.20;;;18.60;56.30;;;;;;5056847;28;20205;-75
2024/01/30 11:30:28;;;;;;;5.03;4.53;;;18.60;56.30;;;;;;5058673;28;20194;-75
2024/01/30 11:33:11;;;;;;;4.80;4.32;;;18.60;56.30;;;;;;5032655;28;20211;-75
2024/01/30 11:35:39;;;;;;;4.57;4.18;;;18.60;56.30;;;;;;5041003;28;20259;-75
2024/01/30 11:38:07;;;;;;;5.38;4.50;;;18.60;56.30;;;;;;5089424;28;20190;-75
2024/01/30 11:40:35;;;;;;;4.60;4.20;;;18.60;56.40;;;;;;5056241;28;20722;-74
2024/01/30 11:43:04;;;;;;;4.68;4.28;;;18.60;56.30;;;;;;5057724;28;20278;-75
2024/01/30 11:45:31;;;;;;;3.83;3.53;;;18.60;56.30;;;;;;5065556;28;20240;-75
2024/01/30 11:47:59;;;;;;;5.03;4.15;;;18.60;56.30;;;;;;5057863;28;20194;-75
2024/01/30 11:50:26;;;;;;;4.18;3.78;;;18.60;56.30;;;;;;5057831;28;20243;-74
2024/01/30 11:52:51;;;;;;;4.38;3.88;;;18.60;56.30;;;;;;5057087;28;20206;-74
2024/01/30 11:55:19;;;;;;;4.40;3.97;;;18.60;56.30;;;;;;5057234;28;20309;-74
2024/01/30 11:57:45;;;;;;;4.10;3.70;;;18.60;56.30;;;;;;5058621;28;20192;-74
2024/01/30 12:00:19;;;;;;;4.40;4.00;;;18.70;56.30;;;;;;5057132;28;20191;-74
2024/01/30 12:02:57;;;;;;;4.90;3.70;;;18.60;56.30;;;;;;5051818;28;20588;-74
2024/01/30 12:05:24;;;;;;;4.30;3.90;;;18.70;56.30;;;;;;5044440;28;20221;-74
2024/01/30 12:07:50;;;;;;;3.95;3.60;;;18.60;56.30;;;;;;5051884;28;20213;-74
2024/01/30 12:10:17;;;;;;;3.97;3.67;;;18.60;56.20;;;;;;5036273;28;20195;-75
2024/01/30 12:12:50;;;;;;;4.25;3.50;;;18.70;56.40;;;;;;5037197;28;20272;-74
2024/01/30 12:15:18;;;;;;;3.70;3.40;;;18.60;56.40;;;;;;5063269;28;20209;-74
2024/01/30 12:17:43;;;;;;;6.20;3.65;;;18.60;56.20;;;;;;5027509;28;20184;-75
2024/01/30 12:20:17;;;;;;;3.30;3.00;;;18.60;56.10;;;;;;5057828;28;20190;-74
2024/01/30 12:22:48;;;;;;;3.45;3.15;;;18.60;56.20;;;;;;5054970;28;20194;-74
2024/01/30 12:25:16;;;;;;;4.43;4.03;;;18.60;56.20;;;;;;5059172;28;20206;-75
2024/01/30 12:27:45;;;;;;;4.22;3.30;;;18.60;56.20;;;;;;5094187;28;20288;-74
2024/01/30 12:30:13;;;;;;;4.10;3.70;;;18.60;56.20;;;;;;5096037;28;20281;-74
2024/01/30 12:32:43;;;;;;;3.65;3.35;;;18.60;56.20;;;;;;5067462;28;20256;-75
2024/01/30 12:35:17;;;;;;;3.67;3.38;;;18.60;56.10;;;;;;5040220;28;20211;-74
2024/01/30 12:37:44;;;;;;;3.70;3.40;;;18.70;56.30;;;;;;5051277;28;20178;-74
2024/01/30 12:40:15;;;;;;;3.35;3.10;;;18.70;56.20;;;;;;5053400;28;20182;-75
2024/01/30 12:42:46;;;;;;;3.30;3.00;;;18.70;56.20;;;;;;5051487;28;20241;-75
2024/01/30 12:45:14;;;;;;;3.65;3.22;;;18.60;56.70;;;;;;5045106;28;20578;-75
2024/01/30 12:47:40;;;;;;;3.42;3.13;;;18.60;56.20;;;;;;5051345;28;20182;-75